Time;durP1;ratioP1;P1;durP2;ratioP2;P2;SDS_P1;SDS_P2;PMS_P1;PMS_P2;Temp;Humidity;BMP_temperature;BMP_pressure;BME280_temperature;BME280_humidity;BME280_pressure;Samples;Min_cycle;Max_cycle;Signal;HPM_P1;HPM_P2
2021/06/28 03:00:40;;;;;;;4.75;2.40;;;25.10;65.30;;;;;;6104997;22;2819717;-52
2021/06/28 03:03:06;;;;;;;3.90;2.10;;;25.10;65.50;;;;;;6235361;23;20067;-53
2021/06/28 03:05:32;;;;;;;3.83;2.30;;;25.10;65.40;;;;;;6217742;23;20028;-52
2021/06/28 03:07:58;;;;;;;4.60;2.47;;;25.10;65.40;;;;;;6205293;23;20396;-52
2021/06/28 03:10:23;;;;;;;3.45;2.17;;;25.10;65.30;;;;;;6205251;23;20391;-52
2021/06/28 03:12:49;;;;;;;4.00;2.38;;;25.10;65.30;;;;;;6205203;23;20047;-53
2021/06/28 03:15:18;;;;;;;4.60;2.63;;;25.10;65.40;;;;;;6205008;23;20013;-52
2021/06/28 03:17:44;;;;;;;3.97;2.38;;;25.10;65.40;;;;;;6205350;23;20099;-52
2021/06/28 03:20:13;;;;;;;5.00;2.70;;;25.10;65.40;;;;;;6205163;23;20001;-53
2021/06/28 03:22:40;;;;;;;5.05;2.20;;;25.00;65.20;;;;;;6204989;23;20648;-52
2021/06/28 03:25:12;;;;;;;6.47;2.30;;;25.10;65.30;;;;;;6205086;23;20007;-53
2021/06/28 03:27:38;;;;;;;4.25;2.40;;;25.10;66.00;;;;;;6204676;23;20602;-53
2021/06/28 03:30:07;;;;;;;5.35;2.50;;;25.10;65.30;;;;;;6205054;23;20005;-53
2021/06/28 03:32:33;;;;;;;4.47;2.13;;;25.10;65.30;;;;;;6204843;23;20003;-53
2021/06/28 03:34:58;;;;;;;4.07;2.70;;;25.00;65.20;;;;;;6202959;23;20017;-53
2021/06/28 03:37:25;;;;;;;4.43;2.28;;;25.00;65.20;;;;;;6204106;23;20510;-53
2021/06/28 03:39:51;;;;;;;3.70;2.28;;;25.10;65.30;;;;;;6202897;23;20047;-53
2021/06/28 03:42:17;;;;;;;3.50;2.22;;;25.00;65.20;;;;;;6203951;23;20001;-53
2021/06/28 03:44:42;;;;;;;5.50;2.20;;;25.10;65.20;;;;;;6203914;23;20019;-53
2021/06/28 03:47:08;;;;;;;3.53;2.00;;;25.10;65.20;;;;;;6204083;23;20001;-53
2021/06/28 03:49:34;;;;;;;4.13;2.58;;;25.10;65.20;;;;;;6203833;23;20633;-53
2021/06/28 03:52:00;;;;;;;5.53;2.30;;;25.00;65.10;;;;;;6203741;23;20099;-52
2021/06/28 03:54:25;;;;;;;4.95;2.45;;;25.00;65.20;;;;;;6203426;23;20005;-53
2021/06/28 03:56:51;;;;;;;3.63;2.33;;;25.00;65.30;;;;;;6203328;23;20019;-53
2021/06/28 03:59:17;;;;;;;4.78;2.30;;;25.10;65.10;;;;;;6203953;23;20007;-53
2021/06/28 04:01:43;;;;;;;4.72;2.30;;;25.10;65.40;;;;;;6203432;23;20387;-53
2021/06/28 04:04:09;;;;;;;5.72;2.30;;;25.10;65.70;;;;;;6177006;23;20116;-53
2021/06/28 04:06:35;;;;;;;4.88;1.98;;;25.10;65.50;;;;;;6203620;23;20048;-53
2021/06/28 04:09:02;;;;;;;5.90;2.10;;;25.10;65.30;;;;;;6204004;23;20008;-53
2021/06/28 04:11:29;;;;;;;11.70;2.75;;;25.10;65.50;;;;;;6203619;23;19997;-53
2021/06/28 04:13:58;;;;;;;6.95;2.75;;;25.10;65.30;;;;;;6203461;23;20004;-53
2021/06/28 04:16:24;;;;;;;5.97;2.42;;;25.10;65.50;;;;;;6203340;23;20088;-53
2021/06/28 04:18:50;;;;;;;14.60;3.20;;;25.10;65.40;;;;;;6203580;23;19996;-53
2021/06/28 04:21:16;;;;;;;9.82;2.20;;;25.10;65.40;;;;;;6203048;23;20007;-53
2021/06/28 04:23:42;;;;;;;7.18;3.10;;;25.10;65.30;;;;;;6203240;23;20028;-53
2021/06/28 04:26:08;;;;;;;5.03;2.70;;;25.10;65.50;;;;;;6203385;23;20067;-53
2021/06/28 04:28:34;;;;;;;4.93;2.60;;;25.10;65.40;;;;;;6203609;23;20518;-53
2021/06/28 04:30:59;;;;;;;10.13;2.78;;;25.10;65.00;;;;;;6203668;23;20376;-53
2021/06/28 04:33:25;;;;;;;10.70;2.70;;;25.10;64.90;;;;;;6203660;23;20005;-53
2021/06/28 04:35:51;;;;;;;5.57;2.85;;;25.10;64.70;;;;;;6203369;23;20075;-53
2021/06/28 04:38:17;;;;;;;10.05;2.92;;;25.00;64.70;;;;;;6203699;23;20084;-53
2021/06/28 04:40:43;;;;;;;6.85;2.90;;;25.00;64.60;;;;;;6203633;23;20009;-53
2021/06/28 04:43:08;;;;;;;10.52;2.83;;;25.00;64.60;;;;;;6203689;23;20008;-53
2021/06/28 04:45:34;;;;;;;20.00;3.38;;;25.00;64.50;;;;;;6203616;23;20404;-53
2021/06/28 04:48:00;;;;;;;13.98;3.67;;;25.00;64.30;;;;;;6204219;23;20352;-53
2021/06/28 04:50:26;;;;;;;7.97;3.08;;;25.00;64.20;;;;;;6204295;23;20005;-53
2021/06/28 04:52:54;;;;;;;5.63;2.72;;;25.00;64.40;;;;;;6204249;23;20003;-53
2021/06/28 04:55:21;;;;;;;7.45;2.78;;;25.00;64.30;;;;;;6203954;23;20009;-53
2021/06/28 04:57:47;;;;;;;12.82;3.20;;;25.00;64.00;;;;;;6177745;23;20032;-53
2021/06/28 05:00:15;;;;;;;6.97;3.20;;;25.00;63.70;;;;;;6204161;23;20770;-53
2021/06/28 05:02:42;;;;;;;10.50;3.45;;;25.00;63.60;;;;;;6204105;23;20000;-53
2021/06/28 05:05:08;;;;;;;8.43;3.05;;;25.00;63.60;;;;;;6204309;23;20004;-53
2021/06/28 05:07:34;;;;;;;6.18;3.17;;;25.00;63.50;;;;;;6203994;23;20055;-53
2021/06/28 05:09:59;;;;;;;13.57;3.03;;;25.00;63.60;;;;;;6204136;23;20004;-52
2021/06/28 05:12:25;;;;;;;7.47;2.90;;;24.90;63.70;;;;;;6204112;23;20013;-53
2021/06/28 05:14:51;;;;;;;15.60;3.65;;;25.00;63.80;;;;;;6203973;23;20008;-52
2021/06/28 05:17:16;;;;;;;9.85;3.05;;;25.00;63.80;;;;;;6204204;23;20008;-53
2021/06/28 05:19:42;;;;;;;9.73;3.38;;;24.90;63.80;;;;;;6204135;23;20001;-52
2021/06/28 05:22:08;;;;;;;7.25;3.60;;;24.90;63.90;;;;;;6204070;23;20001;-53
2021/06/28 05:24:33;;;;;;;8.50;3.45;;;24.90;63.80;;;;;;6204016;23;20001;-53
2021/06/28 05:26:59;;;;;;;6.38;3.45;;;24.90;63.70;;;;;;6204171;23;20035;-52
2021/06/28 05:29:25;;;;;;;5.78;3.05;;;24.90;63.80;;;;;;6204081;23;20013;-53
2021/06/28 05:31:51;;;;;;;6.28;2.70;;;24.90;63.70;;;;;;6203798;23;20004;-53
2021/06/28 05:34:16;;;;;;;5.95;3.42;;;24.90;63.80;;;;;;6203902;23;20004;-53
2021/06/28 05:36:42;;;;;;;7.03;3.40;;;24.90;63.80;;;;;;6203514;23;20104;-52
2021/06/28 05:39:08;;;;;;;5.45;3.20;;;24.90;63.90;;;;;;6204012;23;20005;-54
2021/06/28 05:41:34;;;;;;;7.28;3.25;;;24.90;63.90;;;;;;6201224;23;20082;-52
2021/06/28 05:43:59;;;;;;;7.25;3.15;;;24.90;64.00;;;;;;6203060;23;20000;-52
2021/06/28 05:46:25;;;;;;;5.90;2.75;;;24.90;64.10;;;;;;6202860;23;20009;-53
2021/06/28 05:48:51;;;;;;;5.75;2.95;;;24.90;64.30;;;;;;6201990;23;20015;-53
2021/06/28 05:51:20;;;;;;;11.23;3.70;;;24.90;64.30;;;;;;6202730;23;20020;-53
2021/06/28 05:53:47;;;;;;;6.00;3.20;;;25.00;64.30;;;;;;6202766;23;20008;-50
2021/06/28 05:56:13;;;;;;;7.68;2.67;;;24.90;64.20;;;;;;6202607;23;20012;-51
2021/06/28 05:58:39;;;;;;;8.80;2.75;;;24.90;64.60;;;;;;6202845;23;20364;-52
2021/06/28 06:01:05;;;;;;;6.72;3.47;;;24.90;64.40;;;;;;6202375;23;20020;-52
2021/06/28 06:03:31;;;;;;;7.18;3.08;;;24.90;64.40;;;;;;6203835;23;20000;-53
2021/06/28 06:07:39;;;;;;;5.45;2.72;;;25.00;64.00;;;;;;5099934;27;20416;-52
2021/06/28 06:10:31;;;;;;;7.75;3.42;;;24.90;64.20;;;;;;5059535;28;20476;-53
2021/06/28 06:12:57;;;;;;;5.88;3.42;;;24.90;64.80;;;;;;5058994;28;20064;-52
2021/06/28 06:15:23;;;;;;;9.57;3.42;;;24.90;64.70;;;;;;5059033;28;20020;-52
2021/06/28 06:17:48;;;;;;;6.28;3.03;;;25.00;64.80;;;;;;5059374;28;20017;-52
2021/06/28 06:20:14;;;;;;;6.57;3.20;;;24.90;64.80;;;;;;5059173;28;20530;-52
2021/06/28 06:22:40;;;;;;;6.82;3.05;;;24.90;64.70;;;;;;5059416;28;20070;-51
2021/06/28 06:25:07;;;;;;;7.30;3.42;;;24.90;64.70;;;;;;5059348;28;20024;-52
2021/06/28 06:27:33;;;;;;;6.50;3.33;;;25.00;64.90;;;;;;5058916;28;20074;-52
2021/06/28 06:29:59;;;;;;;5.18;3.30;;;24.90;65.00;;;;;;5058966;28;20108;-52
2021/06/28 06:32:25;;;;;;;6.97;3.95;;;25.00;65.00;;;;;;5058926;28;20083;-52
2021/06/28 06:34:51;;;;;;;5.40;3.13;;;24.90;65.50;;;;;;5059624;28;20375;-53
2021/06/28 06:37:16;;;;;;;4.63;3.08;;;24.90;65.00;;;;;;5059660;28;20067;-52
2021/06/28 06:39:42;;;;;;;4.95;2.95;;;25.00;64.90;;;;;;5059716;28;20154;-52
2021/06/28 06:42:08;;;;;;;5.20;3.30;;;25.00;65.10;;;;;;5059707;28;20523;-51
2021/06/28 06:44:34;;;;;;;6.03;3.60;;;24.90;64.90;;;;;;5059664;28;20582;-52
2021/06/28 06:47:00;;;;;;;5.50;3.58;;;24.90;64.60;;;;;;5059575;28;20017;-52
2021/06/28 06:49:25;;;;;;;5.72;3.35;;;24.90;64.40;;;;;;5059551;28;20033;-52
2021/06/28 06:51:52;;;;;;;5.45;3.20;;;24.90;64.80;;;;;;5059490;28;20456;-52
2021/06/28 06:54:17;;;;;;;6.32;3.60;;;24.90;65.20;;;;;;5059449;28;20024;-52
2021/06/28 06:56:43;;;;;;;5.93;3.42;;;24.90;65.10;;;;;;5059491;28;20051;-52
2021/06/28 06:59:09;;;;;;;7.70;3.50;;;24.90;65.30;;;;;;5059208;28;20036;-52
2021/06/28 07:01:37;;;;;;;5.72;3.38;;;25.00;65.00;;;;;;5059222;28;20440;-52
2021/06/28 07:07:11;;;;;;;6.03;3.40;;;24.90;64.50;;;;;;5080472;27;20413;-52
2021/06/28 07:10:06;;;;;;;8.50;3.80;;;24.90;64.40;;;;;;5060394;28;20488;-52
2021/06/28 07:12:32;;;;;;;8.63;3.70;;;24.90;64.40;;;;;;5060292;28;20040;-53
2021/06/28 07:14:58;;;;;;;5.30;3.65;;;24.90;64.40;;;;;;5060059;28;20029;-52
2021/06/28 07:17:24;;;;;;;5.53;3.55;;;24.90;64.40;;;;;;5060188;28;20009;-52
2021/06/28 07:20:33;;;;;;;7.00;3.33;;;24.90;64.00;;;;;;5092314;27;20490;-52
2021/06/28 07:22:59;;;;;;;6.22;3.90;;;24.90;64.80;;;;;;5080371;28;20715;-52
2021/06/28 07:25:25;;;;;;;7.13;3.00;;;24.90;65.10;;;;;;5080263;28;20099;-52
2021/06/28 07:27:51;;;;;;;4.85;3.05;;;24.90;65.20;;;;;;5080353;28;20099;-52
2021/06/28 07:30:21;;;;;;;6.00;3.78;;;25.00;65.30;;;;;;5080281;28;20063;-52
2021/06/28 07:32:47;;;;;;;5.35;3.47;;;24.90;64.80;;;;;;5080335;28;20040;-52
2021/06/28 07:35:13;;;;;;;6.75;3.63;;;24.90;64.70;;;;;;5080200;28;20514;-53
2021/06/28 07:37:39;;;;;;;6.57;3.47;;;24.90;64.80;;;;;;5080178;28;20426;-52
2021/06/28 07:40:06;;;;;;;6.45;3.55;;;24.90;65.30;;;;;;5080173;28;20037;-53
2021/06/28 07:42:32;;;;;;;5.65;3.75;;;24.90;65.20;;;;;;5079992;28;20035;-52
2021/06/28 07:44:58;;;;;;;9.18;4.38;;;24.90;65.00;;;;;;5079989;28;20374;-52
2021/06/28 07:47:25;;;;;;;5.43;3.90;;;24.90;65.00;;;;;;5080032;28;20071;-52
2021/06/28 07:49:51;;;;;;;6.40;3.97;;;25.00;65.10;;;;;;5079925;28;20024;-52
2021/06/28 07:52:16;;;;;;;6.07;3.67;;;24.90;65.00;;;;;;5075553;28;20619;-52
2021/06/28 07:54:44;;;;;;;5.72;3.38;;;24.90;65.10;;;;;;5059435;28;20063;-52
2021/06/28 07:57:10;;;;;;;5.90;3.35;;;25.00;65.10;;;;;;5059588;28;20099;-52
2021/06/28 07:59:35;;;;;;;7.05;3.97;;;25.00;65.10;;;;;;5059527;28;20037;-52
2021/06/28 08:02:01;;;;;;;6.85;3.90;;;24.90;65.10;;;;;;5059486;28;20032;-52
2021/06/28 08:04:27;;;;;;;5.93;3.60;;;25.00;65.10;;;;;;5059412;28;20029;-52
2021/06/28 08:06:54;;;;;;;4.53;3.45;;;24.90;65.10;;;;;;5059395;28;20048;-52
2021/06/28 08:09:20;;;;;;;5.63;3.72;;;24.90;65.00;;;;;;5059403;28;20021;-52
2021/06/28 08:11:46;;;;;;;6.05;3.60;;;24.90;65.00;;;;;;5059369;28;20082;-52
2021/06/28 08:14:13;;;;;;;5.85;3.88;;;25.00;65.00;;;;;;5059199;28;20059;-52
2021/06/28 08:16:39;;;;;;;5.10;3.80;;;25.00;65.20;;;;;;5059259;28;20059;-52
2021/06/28 08:19:06;;;;;;;5.40;3.78;;;24.90;65.30;;;;;;5058812;28;20045;-52
2021/06/28 08:21:33;;;;;;;5.93;3.90;;;24.90;65.50;;;;;;5058997;28;20033;-52
2021/06/28 08:23:59;;;;;;;5.05;3.55;;;25.00;65.60;;;;;;5058879;28;20533;-52
2021/06/28 08:26:24;;;;;;;6.55;3.70;;;25.00;65.60;;;;;;5061256;28;20032;-52
2021/06/28 08:28:50;;;;;;;5.40;3.47;;;24.90;65.50;;;;;;5058673;28;20112;-52
2021/06/28 08:31:15;;;;;;;5.65;3.60;;;24.90;65.00;;;;;;5049092;28;20210;-51
2021/06/28 08:33:43;;;;;;;5.65;3.60;;;24.90;64.90;;;;;;5045642;28;20025;-52
2021/06/28 08:36:09;;;;;;;6.57;3.67;;;25.00;65.20;;;;;;5045573;28;20877;-52
2021/06/28 08:38:35;;;;;;;8.63;3.90;;;24.90;65.10;;;;;;5045490;28;20045;-52
2021/06/28 08:41:01;;;;;;;7.20;4.03;;;24.90;65.10;;;;;;5045593;28;20017;-52
2021/06/28 08:43:27;;;;;;;7.40;3.70;;;24.90;65.30;;;;;;5045546;28;20024;-51
2021/06/28 08:45:54;;;;;;;6.07;3.90;;;24.90;65.40;;;;;;5045398;28;20021;-52
2021/06/28 08:48:20;;;;;;;6.38;3.72;;;24.90;65.40;;;;;;5045464;28;20085;-53
2021/06/28 08:50:46;;;;;;;5.90;3.20;;;25.00;65.40;;;;;;5045410;28;20122;-52
2021/06/28 08:53:14;;;;;;;9.70;3.78;;;25.00;65.40;;;;;;5045351;28;20500;-53
2021/06/28 08:55:40;;;;;;;7.70;3.22;;;24.90;65.40;;;;;;5045135;28;20013;-52
2021/06/28 08:58:06;;;;;;;6.38;3.50;;;25.00;65.60;;;;;;5045044;28;20033;-52
2021/06/28 09:00:33;;;;;;;6.72;3.83;;;25.00;65.30;;;;;;5045104;28;20075;-53
2021/06/28 09:03:04;;;;;;;5.53;3.60;;;24.90;65.80;;;;;;5044927;28;20096;-52
2021/06/28 09:06:20;;;;;;;8.68;3.92;;;24.90;65.50;;;;;;5044909;28;20029;-52
2021/06/28 09:08:54;;;;;;;5.18;3.42;;;25.00;65.60;;;;;;5044893;28;20040;-52
2021/06/28 09:11:19;;;;;;;6.00;3.75;;;25.00;65.70;;;;;;5045013;28;20033;-52
2021/06/28 09:13:47;;;;;;;6.25;3.67;;;24.90;65.70;;;;;;5045038;28;20582;-52
2021/06/28 09:16:23;;;;;;;6.10;3.92;;;25.00;65.80;;;;;;5044757;28;20028;-52
2021/06/28 09:19:05;;;;;;;5.13;3.13;;;25.00;65.80;;;;;;5044483;28;20041;-53
2021/06/28 09:21:55;;;;;;;5.80;4.10;;;24.90;65.80;;;;;;5044806;28;20036;-52
2021/06/28 09:24:40;;;;;;;4.72;3.70;;;25.00;65.90;;;;;;5044223;28;20033;-52
2021/06/28 09:27:09;;;;;;;7.15;3.50;;;25.00;65.80;;;;;;5044724;28;20485;-52
2021/06/28 09:30:16;;;;;;;5.60;3.78;;;25.00;65.40;;;;;;5121324;27;20444;-52
2021/06/28 09:32:55;;;;;;;5.38;3.60;;;24.90;65.80;;;;;;5121127;28;20062;-52
2021/06/28 09:35:38;;;;;;;5.82;3.50;;;25.00;65.80;;;;;;5121157;28;20030;-52
2021/06/28 09:38:27;;;;;;;4.80;3.65;;;25.00;65.80;;;;;;5121079;27;20046;-53
2021/06/28 09:40:53;;;;;;;5.10;3.83;;;25.00;65.80;;;;;;5121105;27;20023;-53
2021/06/28 09:43:26;;;;;;;6.10;3.58;;;25.00;65.90;;;;;;5121065;27;20034;-52
2021/06/28 09:45:56;;;;;;;5.75;3.72;;;25.00;66.00;;;;;;5119688;28;20027;-52
2021/06/28 09:48:27;;;;;;;5.25;3.65;;;25.00;66.00;;;;;;5120892;27;20039;-53
2021/06/28 09:54:39;;;;;;;4.72;3.28;;;25.00;65.60;;;;;;5080989;27;20766;-52
2021/06/28 09:57:07;;;;;;;5.13;3.33;;;25.00;66.20;;;;;;5080488;28;20036;-52
2021/06/28 09:59:40;;;;;;;4.93;3.55;;;25.00;66.20;;;;;;5080407;28;20467;-52
2021/06/28 10:02:26;;;;;;;4.35;3.10;;;25.00;66.20;;;;;;5080297;28;20027;-52
2021/06/28 10:07:50;;;;;;;5.10;3.47;;;25.00;66.40;;;;;;5056360;28;20059;-52
2021/06/28 10:10:23;;;;;;;4.53;3.40;;;25.00;66.30;;;;;;5065938;28;20055;-52
2021/06/28 10:12:51;;;;;;;4.63;3.55;;;25.00;66.40;;;;;;5064929;28;20068;-53
2021/06/28 10:15:20;;;;;;;6.25;3.92;;;25.00;66.40;;;;;;5080043;28;20064;-52
2021/06/28 10:20:10;;;;;;;4.90;3.40;;;25.00;66.00;;;;;;5080813;27;20508;-53
2021/06/28 10:22:37;;;;;;;5.55;3.55;;;25.00;66.60;;;;;;5080445;28;20387;-52
2021/06/28 10:25:06;;;;;;;5.47;3.63;;;25.00;66.60;;;;;;5080362;28;20074;-52
2021/06/28 10:27:33;;;;;;;4.32;3.22;;;25.00;66.70;;;;;;5080382;28;20016;-52
2021/06/28 10:30:00;;;;;;;4.60;3.35;;;25.00;66.70;;;;;;5080368;28;20024;-52
2021/06/28 10:32:29;;;;;;;5.25;3.53;;;25.00;66.60;;;;;;5080267;28;20107;-52
2021/06/28 10:34:55;;;;;;;4.47;3.17;;;25.00;66.70;;;;;;5079930;28;20032;-53
2021/06/28 10:37:35;;;;;;;4.63;3.50;;;25.10;66.80;;;;;;5080256;28;20028;-53
2021/06/28 10:40:15;;;;;;;4.47;3.38;;;25.00;66.80;;;;;;5079877;28;20394;-53
2021/06/28 10:42:44;;;;;;;4.57;3.30;;;25.10;66.80;;;;;;5079855;28;20036;-53
2021/06/28 10:45:12;;;;;;;5.43;3.75;;;25.00;66.90;;;;;;5079823;28;20044;-52
2021/06/28 10:47:40;;;;;;;5.72;3.10;;;25.00;66.90;;;;;;5076436;28;20020;-52
2021/06/28 10:50:08;;;;;;;5.15;3.38;;;25.10;67.10;;;;;;5071132;28;20040;-55
2021/06/28 10:52:41;;;;;;;4.63;3.30;;;25.10;67.20;;;;;;5079961;28;20024;-52
2021/06/28 10:55:19;;;;;;;4.53;3.53;;;25.10;67.20;;;;;;5079769;28;20632;-53
2021/06/28 10:57:48;;;;;;;6.45;3.63;;;25.10;67.20;;;;;;5078143;28;20024;-52
2021/06/28 11:00:15;;;;;;;4.70;3.42;;;25.10;67.10;;;;;;5062236;28;20387;-53
2021/06/28 11:02:42;;;;;;;4.60;3.25;;;25.10;67.10;;;;;;5059558;28;20706;-53
2021/06/28 11:05:10;;;;;;;5.95;3.28;;;25.10;67.00;;;;;;5059424;28;20510;-53
2021/06/28 11:07:47;;;;;;;4.90;3.50;;;25.10;67.00;;;;;;5059387;28;20109;-53
2021/06/28 11:10:36;;;;;;;4.25;3.22;;;25.10;67.10;;;;;;5059335;28;20107;-53
2021/06/28 11:13:26;;;;;;;5.13;3.25;;;25.10;67.10;;;;;;5059368;28;20016;-53
2021/06/28 11:15:52;;;;;;;4.55;3.28;;;25.10;67.20;;;;;;5059015;28;20025;-53
2021/06/28 11:18:31;;;;;;;5.57;3.67;;;25.10;67.30;;;;;;5058949;28;20072;-53
2021/06/28 11:20:56;;;;;;;4.95;3.42;;;25.10;67.50;;;;;;5059135;28;20090;-53
2021/06/28 11:23:22;;;;;;;5.25;3.38;;;25.10;67.60;;;;;;5059100;28;20028;-53
2021/06/28 11:25:56;;;;;;;4.95;3.75;;;25.10;67.80;;;;;;5058881;28;20632;-53
2021/06/28 11:28:34;;;;;;;4.30;3.25;;;25.10;68.00;;;;;;5058795;28;20582;-53
2021/06/28 11:31:09;;;;;;;4.40;3.40;;;25.10;68.20;;;;;;5047012;28;20494;-53
2021/06/28 11:33:46;;;;;;;5.47;3.67;;;25.20;68.50;;;;;;5045743;28;20423;-52
2021/06/28 11:36:27;;;;;;;5.13;3.90;;;25.20;68.70;;;;;;5045534;28;20080;-53
2021/06/28 11:39:00;;;;;;;4.95;3.65;;;25.20;68.90;;;;;;5045353;28;20028;-52
2021/06/28 11:44:25;;;;;;;8.50;4.32;;;25.20;68.70;;;;;;5080131;27;21082;-53
2021/06/28 11:46:51;;;;;;;6.80;4.47;;;25.20;68.90;;;;;;5080123;28;20035;-53
2021/06/28 11:49:26;;;;;;;6.20;3.55;;;25.20;68.90;;;;;;5080212;28;20028;-53
2021/06/28 11:51:52;;;;;;;6.63;3.40;;;25.30;68.90;;;;;;5080264;28;20013;-53
2021/06/28 11:54:22;;;;;;;5.38;3.40;;;25.30;68.90;;;;;;5080116;28;20047;-52
2021/06/28 11:56:59;;;;;;;6.28;3.83;;;25.30;69.00;;;;;;5080071;28;20099;-52
2021/06/28 11:59:25;;;;;;;6.45;4.28;;;25.30;68.90;;;;;;5080249;28;20970;-53
2021/06/28 12:02:01;;;;;;;5.90;3.58;;;25.30;68.90;;;;;;5080104;28;20100;-53
2021/06/28 12:04:33;;;;;;;7.05;3.80;;;25.30;68.90;;;;;;5080028;28;20017;-53
2021/06/28 12:08:46;;;;;;;7.68;4.18;;;25.30;68.60;;;;;;5100623;27;20444;-52
2021/06/28 12:13:13;;;;;;;8.40;4.15;;;25.30;68.40;;;;;;5183532;27;20931;-53
2021/06/28 12:15:38;;;;;;;6.20;4.10;;;25.30;68.70;;;;;;5149547;27;20023;-52
2021/06/28 12:18:06;;;;;;;6.72;4.05;;;25.30;68.60;;;;;;5141869;27;20023;-53
2021/06/28 12:20:36;;;;;;;6.95;3.78;;;25.30;68.50;;;;;;5141836;27;20027;-52
2021/06/28 12:23:07;;;;;;;6.07;4.03;;;25.30;68.40;;;;;;5141808;27;20088;-53
2021/06/28 12:25:33;;;;;;;8.75;4.18;;;25.30;68.40;;;;;;5141243;27;20023;-52
2021/06/28 12:27:59;;;;;;;8.15;4.47;;;25.30;68.40;;;;;;5141613;27;20046;-53
2021/06/28 12:30:24;;;;;;;7.88;3.78;;;25.30;68.70;;;;;;5141613;27;20381;-52
2021/06/28 12:32:55;;;;;;;7.38;4.20;;;25.30;68.60;;;;;;5141009;27;20381;-52
2021/06/28 12:35:28;;;;;;;6.75;4.28;;;25.30;68.50;;;;;;5141257;27;20042;-52
2021/06/28 12:37:59;;;;;;;6.53;3.67;;;25.30;68.50;;;;;;5140478;27;20015;-53
2021/06/28 12:40:32;;;;;;;6.95;4.05;;;25.30;68.50;;;;;;5140121;27;20027;-52
2021/06/28 12:43:13;;;;;;;8.30;4.07;;;25.40;68.70;;;;;;5137667;27;20026;-52
2021/06/28 12:45:47;;;;;;;5.85;3.28;;;25.30;68.60;;;;;;5137880;27;20068;-52
2021/06/28 12:48:23;;;;;;;8.88;3.47;;;25.30;68.60;;;;;;5137131;27;20007;-52
2021/06/28 12:50:56;;;;;;;7.80;3.72;;;25.30;68.50;;;;;;5139684;27;20084;-53
2021/06/28 12:53:44;;;;;;;7.03;4.10;;;25.40;68.20;;;;;;5058997;28;20488;-53
2021/06/28 12:56:14;;;;;;;6.90;4.03;;;25.40;68.70;;;;;;5058802;28;20032;-52
2021/06/28 12:58:42;;;;;;;6.18;3.55;;;25.30;68.50;;;;;;5058879;28;20013;-52
2021/06/28 13:01:08;;;;;;;5.72;3.38;;;25.30;68.40;;;;;;5058922;28;20029;-53
2021/06/28 13:03:34;;;;;;;7.68;4.00;;;25.30;68.50;;;;;;5058765;28;20117;-52
2021/06/28 13:06:12;;;;;;;8.23;3.90;;;25.30;68.50;;;;;;5058773;28;20108;-53
2021/06/28 13:08:38;;;;;;;9.27;3.80;;;25.30;68.50;;;;;;5056687;28;20124;-53
2021/06/28 13:11:11;;;;;;;9.60;5.25;;;25.40;68.60;;;;;;5058753;28;20412;-52
2021/06/28 13:15:25;;;;;;;7.32;3.75;;;25.40;68.20;;;;;;5069947;27;20509;-53
2021/06/28 13:17:57;;;;;;;8.60;3.28;;;25.40;68.50;;;;;;5058818;28;20036;-52
2021/06/28 13:20:23;;;;;;;6.78;3.78;;;25.40;68.40;;;;;;5059060;28;20027;-53
2021/06/28 13:22:49;;;;;;;6.18;3.70;;;25.30;68.50;;;;;;5058886;28;20039;-53
2021/06/28 13:25:23;;;;;;;5.63;3.72;;;25.40;68.50;;;;;;5058756;28;20025;-52
2021/06/28 13:27:49;;;;;;;;;;;25.40;68.40;;;;;;5059238;28;20365;-53
2021/06/28 13:30:25;;;;;;;6.85;3.10;;;25.40;68.40;;;;;;5058774;28;20580;-53
2021/06/28 13:33:10;;;;;;;5.57;3.50;;;25.40;68.30;;;;;;5058556;28;20044;-52
2021/06/28 13:35:36;;;;;;;10.30;3.65;;;25.40;68.40;;;;;;5056084;28;20028;-53
2021/06/28 13:38:13;;;;;;;8.13;3.80;;;25.40;68.50;;;;;;5058330;28;20082;-52
2021/06/28 13:40:42;;;;;;;9.02;4.03;;;25.40;68.30;;;;;;5056158;28;20032;-52
2021/06/28 13:43:17;;;;;;;11.25;3.88;;;25.40;68.30;;;;;;5058442;28;20017;-53
2021/06/28 13:45:43;;;;;;;5.90;3.60;;;25.40;68.50;;;;;;5057948;28;20035;-53
2021/06/28 13:48:10;;;;;;;5.78;3.35;;;25.40;68.20;;;;;;5059725;28;20020;-53
2021/06/28 13:50:47;;;;;;;8.25;3.38;;;25.40;68.20;;;;;;5059731;28;20029;-52
2021/06/28 13:53:18;;;;;;;6.05;3.13;;;25.40;68.00;;;;;;5059510;28;20043;-53
2021/06/28 13:55:50;;;;;;;5.05;3.60;;;25.40;68.00;;;;;;5059438;28;20025;-53
2021/06/28 13:58:24;;;;;;;5.28;3.58;;;25.40;68.10;;;;;;5059364;28;20039;-52
2021/06/28 14:00:52;;;;;;;5.53;3.45;;;25.40;67.90;;;;;;5059334;28;20037;-52
2021/06/28 14:03:18;;;;;;;8.88;4.13;;;25.40;67.90;;;;;;5059448;28;20029;-53
2021/06/28 14:05:45;;;;;;;7.03;3.22;;;25.40;68.00;;;;;;5059215;28;20027;-53
2021/06/28 14:08:13;;;;;;;6.75;4.20;;;25.40;68.10;;;;;;5059523;28;20435;-53
2021/06/28 14:10:39;;;;;;;5.07;3.28;;;25.40;67.90;;;;;;5042780;28;20428;-53
2021/06/28 14:13:06;;;;;;;5.30;3.42;;;25.40;68.00;;;;;;5045921;28;20483;-53
2021/06/28 14:15:33;;;;;;;4.78;3.22;;;25.40;67.80;;;;;;5059072;28;20028;-53
2021/06/28 14:17:59;;;;;;;5.25;3.20;;;25.40;67.50;;;;;;5058962;28;20025;-53
2021/06/28 14:20:25;;;;;;;6.30;3.28;;;25.40;67.60;;;;;;5057061;28;20060;-52
2021/06/28 14:22:52;;;;;;;4.93;3.20;;;25.40;67.80;;;;;;5057710;28;20025;-52
2021/06/28 14:25:20;;;;;;;5.95;3.50;;;25.40;67.80;;;;;;5050277;28;20110;-52
2021/06/28 14:27:47;;;;;;;7.80;3.33;;;25.40;67.90;;;;;;5044565;28;20083;-53
2021/06/28 14:30:15;;;;;;;5.82;3.05;;;25.40;67.80;;;;;;5044445;28;20025;-53
2021/06/28 14:32:42;;;;;;;7.35;3.60;;;25.40;67.70;;;;;;5044609;28;20582;-52
2021/06/28 14:35:09;;;;;;;7.60;3.70;;;25.40;67.80;;;;;;5044465;28;20610;-52
2021/06/28 14:37:35;;;;;;;6.47;3.90;;;25.40;67.70;;;;;;5044500;28;20086;-52
2021/06/28 14:40:00;;;;;;;15.75;4.43;;;25.40;67.90;;;;;;5044097;28;20433;-52
2021/06/28 14:42:27;;;;;;;6.90;3.95;;;25.40;68.00;;;;;;5044314;28;20029;-52
2021/06/28 14:44:54;;;;;;;7.40;3.85;;;25.40;68.00;;;;;;5044298;28;20078;-52
2021/06/28 14:47:21;;;;;;;5.53;3.10;;;25.50;68.30;;;;;;5043376;28;20023;-52
2021/06/28 14:49:47;;;;;;;9.35;3.40;;;25.50;68.30;;;;;;5042071;28;20017;-53
2021/06/28 14:52:13;;;;;;;6.10;3.40;;;25.50;68.30;;;;;;5041465;28;20065;-53
2021/06/28 14:54:39;;;;;;;9.20;3.55;;;25.50;68.20;;;;;;5040530;28;20036;-53
2021/06/28 14:57:05;;;;;;;9.02;3.47;;;25.50;68.40;;;;;;5044490;28;20467;-53
2021/06/28 14:59:31;;;;;;;7.03;3.33;;;25.50;68.20;;;;;;5041619;28;20033;-53
2021/06/28 15:01:56;;;;;;;7.65;2.65;;;25.50;68.20;;;;;;5041604;28;20024;-53
2021/06/28 15:04:22;;;;;;;6.18;3.85;;;25.50;68.00;;;;;;5041475;28;20108;-53
2021/06/28 15:06:48;;;;;;;5.38;3.10;;;25.50;68.10;;;;;;5041684;28;20021;-53
2021/06/28 15:09:14;;;;;;;8.60;3.47;;;25.50;67.90;;;;;;5041001;28;20905;-53
2021/06/28 15:11:39;;;;;;;6.40;3.28;;;25.50;67.90;;;;;;5041602;28;20104;-53
2021/06/28 15:14:05;;;;;;;4.85;2.92;;;25.50;67.90;;;;;;5041360;28;20080;-53
2021/06/28 15:16:32;;;;;;;6.70;3.40;;;25.50;67.90;;;;;;5040929;28;20656;-52
2021/06/28 15:18:57;;;;;;;6.30;3.00;;;25.50;67.80;;;;;;5041458;28;20124;-53
2021/06/28 15:21:23;;;;;;;6.75;3.00;;;25.50;68.10;;;;;;5041418;28;20472;-53
2021/06/28 15:23:50;;;;;;;6.57;2.95;;;25.50;68.20;;;;;;5041432;28;20691;-52
2021/06/28 15:26:16;;;;;;;5.65;3.25;;;25.50;68.10;;;;;;5041268;28;20039;-53
2021/06/28 15:28:41;;;;;;;5.07;3.08;;;25.50;68.10;;;;;;5040445;28;20029;-53
2021/06/28 15:31:10;;;;;;;4.82;3.00;;;25.50;67.90;;;;;;5040067;28;20021;-53
2021/06/28 15:33:35;;;;;;;5.55;2.90;;;25.50;67.90;;;;;;5040138;28;20041;-53
2021/06/28 15:36:01;;;;;;;6.78;3.00;;;25.60;68.20;;;;;;5037105;28;20029;-52
2021/06/28 15:40:18;;;;;;;5.10;3.00;;;25.60;67.50;;;;;;5117268;27;20465;-52
2021/06/28 15:42:46;;;;;;;3.92;2.53;;;25.60;67.80;;;;;;5115828;27;20027;-52
2021/06/28 15:45:13;;;;;;;6.80;2.70;;;25.60;67.70;;;;;;5116092;27;20073;-53
2021/06/28 15:47:39;;;;;;;6.47;2.88;;;25.60;67.50;;;;;;5115818;27;20031;-53
2021/06/28 15:50:07;;;;;;;5.00;3.00;;;25.60;67.40;;;;;;5115979;27;20031;-53
2021/06/28 15:52:34;;;;;;;7.45;2.97;;;25.60;67.40;;;;;;5115821;27;20122;-53
2021/06/28 15:54:59;;;;;;;5.50;2.72;;;25.60;67.40;;;;;;5116560;27;20045;-52
2021/06/28 15:57:25;;;;;;;5.55;3.25;;;25.60;67.60;;;;;;5120997;27;20516;-52
2021/06/28 15:59:51;;;;;;;6.75;3.25;;;25.60;67.60;;;;;;5120857;27;20038;-53
2021/06/28 16:02:16;;;;;;;6.88;3.40;;;25.50;67.50;;;;;;5120858;27;20691;-53
2021/06/28 16:04:42;;;;;;;6.55;3.03;;;25.50;67.30;;;;;;5120707;27;20027;-53
2021/06/28 16:07:07;;;;;;;5.55;2.67;;;25.60;67.50;;;;;;5112960;28;20019;-53
2021/06/28 16:09:33;;;;;;;6.93;3.15;;;25.60;68.10;;;;;;5106834;28;20012;-53
2021/06/28 16:11:59;;;;;;;6.80;2.78;;;25.60;67.60;;;;;;5099540;28;20702;-52
2021/06/28 16:14:28;;;;;;;8.05;2.70;;;25.60;67.50;;;;;;5099412;28;20717;-52
2021/06/28 16:16:54;;;;;;;7.30;2.90;;;25.60;67.60;;;;;;5099447;28;20557;-52